sensor_id;sensor_type;location;lat;lon;timestamp;temperature;humidity
21340;DHT22;10828;47.064;15.422;2023-09-18T00:00:46;19.20;99.90
21340;DHT22;10828;47.064;15.422;2023-09-18T00:03:12;19.20;99.90
21340;DHT22;10828;47.064;15.422;2023-09-18T00:05:39;19.20;99.90
21340;DHT22;10828;47.064;15.422;2023-09-18T00:08:05;19.20;99.90
21340;DHT22;10828;47.064;15.422;2023-09-18T00:10:30;19.20;99.90
21340;DHT22;10828;47.064;15.422;2023-09-18T00:13:05;19.10;99.90
21340;DHT22;10828;47.064;15.422;2023-09-18T00:15:30;19.10;99.90
21340;DHT22;10828;47.064;15.422;2023-09-18T00:18:02;19.00;99.90
21340;DHT22;10828;47.064;15.422;2023-09-18T00:20:36;19.00;99.90
21340;DHT22;10828;47.064;15.422;2023-09-18T00:23:09;19.10;99.90
21340;DHT22;10828;47.064;15.422;2023-09-18T00:25:42;19.00;99.90
21340;DHT22;10828;47.064;15.422;2023-09-18T00:28:12;19.00;99.90
21340;DHT22;10828;47.064;15.422;2023-09-18T00:30:49;19.00;99.90
21340;DHT22;10828;47.064;15.422;2023-09-18T00:33:15;19.00;99.90
21340;DHT22;10828;47.064;15.422;2023-09-18T00:35:46;19.00;99.90
21340;DHT22;10828;47.064;15.422;2023-09-18T00:38:14;18.90;99.90
21340;DHT22;10828;47.064;15.422;2023-09-18T00:40:41;19.00;99.90
21340;DHT22;10828;47.064;15.422;2023-09-18T00:43:07;18.90;99.90
21340;DHT22;10828;47.064;15.422;2023-09-18T00:45:34;18.90;99.90
21340;DHT22;10828;47.064;15.422;2023-09-18T00:48:07;18.90;99.90
21340;DHT22;10828;47.064;15.422;2023-09-18T00:50:34;18.90;99.90
21340;DHT22;10828;47.064;15.422;2023-09-18T00:53:02;18.80;99.90
21340;DHT22;10828;47.064;15.422;2023-09-18T00:55:42;18.80;99.90
21340;DHT22;10828;47.064;15.422;2023-09-18T00:58:10;18.80;99.90
21340;DHT22;10828;47.064;15.422;2023-09-18T01:00:36;18.70;99.90
21340;DHT22;10828;47.064;15.422;2023-09-18T01:03:02;18.70;99.90
21340;DHT22;10828;47.064;15.422;2023-09-18T01:05:32;18.70;99.90
21340;DHT22;10828;47.064;15.422;2023-09-18T01:08:00;18.70;99.90
21340;DHT22;10828;47.064;15.422;2023-09-18T01:10:34;18.70;99.90
21340;DHT22;10828;47.064;15.422;2023-09-18T01:13:12;18.70;99.90
21340;DHT22;10828;47.064;15.422;2023-09-18T01:16:12;18.70;99.90
21340;DHT22;10828;47.064;15.422;2023-09-18T01:18:51;18.60;99.90
21340;DHT22;10828;47.064;15.422;2023-09-18T01:21:21;18.60;99.90
21340;DHT22;10828;47.064;15.422;2023-09-18T01:23:48;18.60;99.90
21340;DHT22;10828;47.064;15.422;2023-09-18T01:26:15;18.50;99.90
21340;DHT22;10828;47.064;15.422;2023-09-18T01:28:48;18.50;99.90
21340;DHT22;10828;47.064;15.422;2023-09-18T01:31:21;18.50;99.90
21340;DHT22;10828;47.064;15.422;2023-09-18T01:33:48;18.50;99.90
21340;DHT22;10828;47.064;15.422;2023-09-18T01:36:18;18.50;99.90
21340;DHT22;10828;47.064;15.422;2023-09-18T01:38:44;18.60;99.90
21340;DHT22;10828;47.064;15.422;2023-09-18T01:41:11;18.60;99.90
21340;DHT22;10828;47.064;15.422;2023-09-18T01:43:38;18.50;99.90
21340;DHT22;10828;47.064;15.422;2023-09-18T01:46:05;18.50;99.90
21340;DHT22;10828;47.064;15.422;2023-09-18T01:48:34;18.50;99.90
21340;DHT22;10828;47.064;15.422;2023-09-18T01:51:00;18.50;99.90
21340;DHT22;10828;47.064;15.422;2023-09-18T01:53:26;18.40;99.90
21340;DHT22;10828;47.064;15.422;2023-09-18T01:55:54;18.40;99.90
21340;DHT22;10828;47.064;15.422;2023-09-18T01:58:22;18.40;99.90
21340;DHT22;10828;47.064;15.422;2023-09-18T02:00:49;18.40;99.90
21340;DHT22;10828;47.064;15.422;2023-09-18T02:03:17;18.30;99.90
21340;DHT22;10828;47.064;15.422;2023-09-18T02:05:52;18.30;99.90
21340;DHT22;10828;47.064;15.422;2023-09-18T02:08:18;18.30;99.90
21340;DHT22;10828;47.064;15.422;2023-09-18T02:10:46;18.30;99.90
21340;DHT22;10828;47.064;15.422;2023-09-18T02:13:12;18.30;99.90
21340;DHT22;10828;47.064;15.422;2023-09-18T02:15:44;18.40;99.90
21340;DHT22;10828;47.064;15.422;2023-09-18T02:18:16;18.40;99.90
21340;DHT22;10828;47.064;15.422;2023-09-18T02:20:50;18.40;99.90
21340;DHT22;10828;47.064;15.422;2023-09-18T02:23:23;18.30;99.90
21340;DHT22;10828;47.064;15.422;2023-09-18T02:25:59;18.30;99.90
21340;DHT22;10828;47.064;15.422;2023-09-18T02:28:38;18.20;99.90
21340;DHT22;10828;47.064;15.422;2023-09-18T02:31:08;18.20;99.90
21340;DHT22;10828;47.064;15.422;2023-09-18T02:33:35;18.20;99.90
21340;DHT22;10828;47.064;15.422;2023-09-18T02:36:00;18.20;99.90
21340;DHT22;10828;47.064;15.422;2023-09-18T02:38:41;18.10;99.90
21340;DHT22;10828;47.064;15.422;2023-09-18T02:41:11;18.10;99.90
21340;DHT22;10828;47.064;15.422;2023-09-18T02:43:44;18.10;99.90
21340;DHT22;10828;47.064;15.422;2023-09-18T02:46:13;18.00;99.90
21340;DHT22;10828;47.064;15.422;2023-09-18T02:48:39;18.00;99.90
21340;DHT22;10828;47.064;15.422;2023-09-18T02:51:05;17.90;99.90
21340;DHT22;10828;47.064;15.422;2023-09-18T02:53:41;17.90;99.90
21340;DHT22;10828;47.064;15.422;2023-09-18T02:56:08;17.90;99.90
21340;DHT22;10828;47.064;15.422;2023-09-18T02:58:37;17.90;99.90
21340;DHT22;10828;47.064;15.422;2023-09-18T03:01:25;17.90;99.90
21340;DHT22;10828;47.064;15.422;2023-09-18T03:04:02;17.80;99.90
21340;DHT22;10828;47.064;15.422;2023-09-18T03:06:29;17.80;99.90
21340;DHT22;10828;47.064;15.422;2023-09-18T03:08:54;17.90;99.90
21340;DHT22;10828;47.064;15.422;2023-09-18T03:11:21;17.90;99.90
21340;DHT22;10828;47.064;15.422;2023-09-18T03:13:47;17.90;99.90
21340;DHT22;10828;47.064;15.422;2023-09-18T03:16:21;17.80;99.90
21340;DHT22;10828;47.064;15.422;2023-09-18T03:18:48;17.80;99.90
21340;DHT22;10828;47.064;15.422;2023-09-18T03:21:15;17.80;99.90
21340;DHT22;10828;47.064;15.422;2023-09-18T03:23:44;17.80;99.90
21340;DHT22;10828;47.064;15.422;2023-09-18T03:26:11;17.70;99.90
21340;DHT22;10828;47.064;15.422;2023-09-18T03:28:37;17.70;99.90
21340;DHT22;10828;47.064;15.422;2023-09-18T03:31:03;17.70;99.90
21340;DHT22;10828;47.064;15.422;2023-09-18T03:33:33;17.50;99.90
21340;DHT22;10828;47.064;15.422;2023-09-18T03:36:01;17.50;99.90
21340;DHT22;10828;47.064;15.422;2023-09-18T03:38:42;17.40;99.90
21340;DHT22;10828;47.064;15.422;2023-09-18T03:41:07;17.40;99.90
21340;DHT22;10828;47.064;15.422;2023-09-18T03:43:35;17.30;99.90
21340;DHT22;10828;47.064;15.422;2023-09-18T03:46:11;17.30;99.90
21340;DHT22;10828;47.064;15.422;2023-09-18T03:48:38;17.30;99.90
21340;DHT22;10828;47.064;15.422;2023-09-18T03:51:07;17.20;99.90
21340;DHT22;10828;47.064;15.422;2023-09-18T03:53:35;17.20;99.90
21340;DHT22;10828;47.064;15.422;2023-09-18T03:56:03;17.20;99.90
21340;DHT22;10828;47.064;15.422;2023-09-18T03:58:32;17.20;99.90
21340;DHT22;10828;47.064;15.422;2023-09-18T04:01:00;17.10;99.90
21340;DHT22;10828;47.064;15.422;2023-09-18T04:03:33;17.10;99.90
21340;DHT22;10828;47.064;15.422;2023-09-18T04:06:00;17.10;99.90
21340;DHT22;10828;47.064;15.422;2023-09-18T04:08:33;17.10;99.90
21340;DHT22;10828;47.064;15.422;2023-09-18T04:11:18;17.10;99.90
21340;DHT22;10828;47.064;15.422;2023-09-18T04:13:53;17.10;99.90
21340;DHT22;10828;47.064;15.422;2023-09-18T04:16:19;17.10;99.90
21340;DHT22;10828;47.064;15.422;2023-09-18T04:18:47;17.00;99.90
21340;DHT22;10828;47.064;15.422;2023-09-18T04:21:12;17.00;99.90
21340;DHT22;10828;47.064;15.422;2023-09-18T04:23:38;17.00;99.90
21340;DHT22;10828;47.064;15.422;2023-09-18T04:26:04;17.00;99.90
21340;DHT22;10828;47.064;15.422;2023-09-18T04:28:31;17.00;99.90
21340;DHT22;10828;47.064;15.422;2023-09-18T04:30:58;17.10;99.90
21340;DHT22;10828;47.064;15.422;2023-09-18T04:33:27;17.00;99.90
21340;DHT22;10828;47.064;15.422;2023-09-18T04:36:00;17.00;99.90
21340;DHT22;10828;47.064;15.422;2023-09-18T04:38:27;16.90;99.90
21340;DHT22;10828;47.064;15.422;2023-09-18T04:41:03;16.90;99.90
21340;DHT22;10828;47.064;15.422;2023-09-18T04:43:38;16.90;99.90
21340;DHT22;10828;47.064;15.422;2023-09-18T04:46:04;17.00;99.90
21340;DHT22;10828;47.064;15.422;2023-09-18T04:48:31;17.00;99.90
21340;DHT22;10828;47.064;15.422;2023-09-18T04:51:03;17.10;99.90
21340;DHT22;10828;47.064;15.422;2023-09-18T04:53:31;17.20;99.90
21340;DHT22;10828;47.064;15.422;2023-09-18T04:55:57;17.20;99.90
21340;DHT22;10828;47.064;15.422;2023-09-18T04:58:26;17.20;99.90
21340;DHT22;10828;47.064;15.422;2023-09-18T05:00:55;17.30;99.90
21340;DHT22;10828;47.064;15.422;2023-09-18T05:03:21;17.30;99.90
21340;DHT22;10828;47.064;15.422;2023-09-18T05:05:47;17.30;99.90
21340;DHT22;10828;47.064;15.422;2023-09-18T05:08:16;17.30;99.90
21340;DHT22;10828;47.064;15.422;2023-09-18T05:10:51;17.30;99.90
21340;DHT22;10828;47.064;15.422;2023-09-18T05:13:26;17.40;99.90
21340;DHT22;10828;47.064;15.422;2023-09-18T05:15:53;17.40;99.90
21340;DHT22;10828;47.064;15.422;2023-09-18T05:18:19;17.40;99.90
21340;DHT22;10828;47.064;15.422;2023-09-18T05:20:47;17.40;99.90
21340;DHT22;10828;47.064;15.422;2023-09-18T05:23:14;17.50;99.90
21340;DHT22;10828;47.064;15.422;2023-09-18T05:25:41;17.60;99.90
21340;DHT22;10828;47.064;15.422;2023-09-18T05:28:10;17.50;99.90
21340;DHT22;10828;47.064;15.422;2023-09-18T05:30:42;17.50;99.90
21340;DHT22;10828;47.064;15.422;2023-09-18T05:33:08;17.50;99.90
21340;DHT22;10828;47.064;15.422;2023-09-18T05:35:42;17.50;99.90
21340;DHT22;10828;47.064;15.422;2023-09-18T05:38:09;17.60;99.90
21340;DHT22;10828;47.064;15.422;2023-09-18T05:40:37;17.60;99.90
21340;DHT22;10828;47.064;15.422;2023-09-18T05:43:04;17.60;99.90
21340;DHT22;10828;47.064;15.422;2023-09-18T05:45:32;17.60;99.90
21340;DHT22;10828;47.064;15.422;2023-09-18T05:47:59;17.70;99.90
21340;DHT22;10828;47.064;15.422;2023-09-18T05:50:31;17.70;99.90
21340;DHT22;10828;47.064;15.422;2023-09-18T05:52:59;17.80;99.90
21340;DHT22;10828;47.064;15.422;2023-09-18T05:55:26;17.80;99.90
21340;DHT22;10828;47.064;15.422;2023-09-18T05:57:53;17.90;99.90
21340;DHT22;10828;47.064;15.422;2023-09-18T06:00:20;17.90;99.90
21340;DHT22;10828;47.064;15.422;2023-09-18T06:02:47;17.90;99.90
21340;DHT22;10828;47.064;15.422;2023-09-18T06:05:13;17.90;99.90
21340;DHT22;10828;47.064;15.422;2023-09-18T06:07:48;18.00;99.90
21340;DHT22;10828;47.064;15.422;2023-09-18T06:10:16;18.10;99.90
21340;DHT22;10828;47.064;15.422;2023-09-18T06:12:44;18.10;99.90
21340;DHT22;10828;47.064;15.422;2023-09-18T06:15:13;18.20;99.90
21340;DHT22;10828;47.064;15.422;2023-09-18T06:17:42;18.20;99.90
21340;DHT22;10828;47.064;15.422;2023-09-18T06:20:09;18.30;99.90
21340;DHT22;10828;47.064;15.422;2023-09-18T06:22:36;18.40;99.90
21340;DHT22;10828;47.064;15.422;2023-09-18T06:25:06;18.40;99.90
21340;DHT22;10828;47.064;15.422;2023-09-18T06:27:38;18.40;99.90
21340;DHT22;10828;47.064;15.422;2023-09-18T06:30:07;18.50;99.90
21340;DHT22;10828;47.064;15.422;2023-09-18T06:32:33;18.60;99.90
21340;DHT22;10828;47.064;15.422;2023-09-18T09:40:20;24.40;99.90
21340;DHT22;10828;47.064;15.422;2023-09-18T17:27:30;23.90;99.90
21340;DHT22;10828;47.064;15.422;2023-09-18T17:48:11;23.60;99.90
21340;DHT22;10828;47.064;15.422;2023-09-18T17:51:33;23.50;99.90
21340;DHT22;10828;47.064;15.422;2023-09-18T17:54:27;23.50;99.90
21340;DHT22;10828;47.064;15.422;2023-09-18T17:57:21;23.50;99.90
21340;DHT22;10828;47.064;15.422;2023-09-18T19:33:49;22.70;99.90
21340;DHT22;10828;47.064;15.422;2023-09-18T22:17:07;21.40;99.90
21340;DHT22;10828;47.064;15.422;2023-09-18T22:19:33;21.30;99.90
21340;DHT22;10828;47.064;15.422;2023-09-18T22:22:01;21.30;99.90
21340;DHT22;10828;47.064;15.422;2023-09-18T22:24:27;21.20;99.90
21340;DHT22;10828;47.064;15.422;2023-09-18T22:26:53;21.20;99.90
21340;DHT22;10828;47.064;15.422;2023-09-18T22:29:19;21.20;99.90
21340;DHT22;10828;47.064;15.422;2023-09-18T22:31:46;21.20;99.90
21340;DHT22;10828;47.064;15.422;2023-09-18T22:34:14;21.20;99.90
21340;DHT22;10828;47.064;15.422;2023-09-18T22:36:39;21.20;99.90
21340;DHT22;10828;47.064;15.422;2023-09-18T22:55:52;21.00;99.90
21340;DHT22;10828;47.064;15.422;2023-09-18T22:58:18;21.00;99.90
21340;DHT22;10828;47.064;15.422;2023-09-18T23:00:44;20.90;99.90
21340;DHT22;10828;47.064;15.422;2023-09-18T23:03:10;20.90;99.90
21340;DHT22;10828;47.064;15.422;2023-09-18T23:05:37;20.90;99.90
21340;DHT22;10828;47.064;15.422;2023-09-18T23:08:10;21.00;99.90
21340;DHT22;10828;47.064;15.422;2023-09-18T23:10:37;21.00;99.90
21340;DHT22;10828;47.064;15.422;2023-09-18T23:13:03;21.00;99.90
21340;DHT22;10828;47.064;15.422;2023-09-18T23:15:32;21.00;99.90
21340;DHT22;10828;47.064;15.422;2023-09-18T23:17:59;21.10;99.90
21340;DHT22;10828;47.064;15.422;2023-09-18T23:20:26;21.10;99.90
21340;DHT22;10828;47.064;15.422;2023-09-18T23:22:53;21.10;99.90
21340;DHT22;10828;47.064;15.422;2023-09-18T23:25:22;21.10;99.90
21340;DHT22;10828;47.064;15.422;2023-09-18T23:27:56;21.10;99.90
21340;DHT22;10828;47.064;15.422;2023-09-18T23:30:22;21.10;99.90
21340;DHT22;10828;47.064;15.422;2023-09-18T23:33:02;21.10;99.90
21340;DHT22;10828;47.064;15.422;2023-09-18T23:35:28;21.10;99.90
21340;DHT22;10828;47.064;15.422;2023-09-18T23:37:59;21.20;99.90
21340;DHT22;10828;47.064;15.422;2023-09-18T23:40:26;21.20;99.90
21340;DHT22;10828;47.064;15.422;2023-09-18T23:42:58;21.20;99.90
21340;DHT22;10828;47.064;15.422;2023-09-18T23:45:39;21.20;99.90
21340;DHT22;10828;47.064;15.422;2023-09-18T23:48:10;21.20;99.90
21340;DHT22;10828;47.064;15.422;2023-09-18T23:50:41;21.10;99.90
21340;DHT22;10828;47.064;15.422;2023-09-18T23:53:08;21.10;99.90
21340;DHT22;10828;47.064;15.422;2023-09-18T23:55:43;21.10;99.90
21340;DHT22;10828;47.064;15.422;2023-09-18T23:58:15;21.10;99.90
